Time;durP1;ratioP1;P1;durP2;ratioP2;P2;SDS_P1;SDS_P2;PMS_P1;PMS_P2;Temp;Humidity;BMP_temperature;BMP_pressure;BME280_temperature;BME280_humidity;BME280_pressure;Samples;Min_cycle;Max_cycle;Signal;HPM_P1;HPM_P2
2022/07/27 00:01:33;;;;;;;6.63;5.50;;;;;18.40;96277.00;;;;8443827;27;20238;-66
2022/07/27 00:05:38;;;;;;;9.90;5.03;;;;;18.70;96275.00;;;;8437021;27;20783;-65
2022/07/27 00:09:41;;;;;;;10.05;5.43;;;;;18.80;96280.00;;;;8436991;28;20230;-61
2022/07/27 00:13:46;;;;;;;7.60;4.82;;;;;18.90;96268.00;;;;8443615;28;20218;-62
2022/07/27 00:17:49;;;;;;;7.13;4.43;;;;;18.90;96279.00;;;;8453529;27;20308;-61
2022/07/27 00:21:53;;;;;;;7.28;4.43;;;;;19.00;96289.00;;;;8451021;27;20233;-62
2022/07/27 00:25:56;;;;;;;5.53;4.20;;;;;19.00;96263.00;;;;8446231;28;20641;-63
2022/07/27 00:30:01;;;;;;;5.18;4.13;;;;;19.00;96259.00;;;;8451754;27;20253;-63
2022/07/27 00:34:05;;;;;;;7.85;4.60;;;;;19.00;96266.00;;;;8459453;27;20235;-62
2022/07/27 00:38:08;;;;;;;4.10;3.50;;;;;18.90;96254.00;;;;8448410;28;20230;-62
2022/07/27 00:42:11;;;;;;;5.93;4.20;;;;;18.90;96249.00;;;;8446683;27;20321;-64
2022/07/27 00:46:16;;;;;;;5.20;3.42;;;;;18.90;96249.00;;;;8452351;27;20584;-64
2022/07/27 00:50:19;;;;;;;5.70;3.58;;;;;18.90;96248.00;;;;8429826;28;20323;-62
2022/07/27 00:54:22;;;;;;;4.30;3.28;;;;;18.90;96256.00;;;;8436727;27;20276;-63
2022/07/27 00:58:27;;;;;;;6.20;2.40;;;;;18.70;96261.00;;;;8421836;28;20229;-66
2022/07/27 01:02:31;;;;;;;4.35;2.80;;;;;18.00;96263.00;;;;8434097;27;20236;-64
2022/07/27 01:06:35;;;;;;;7.72;2.80;;;;;17.50;96259.00;;;;8435710;27;20278;-63
2022/07/27 01:10:39;;;;;;;3.95;2.60;;;;;17.20;96266.00;;;;8441588;27;20225;-63
2022/07/27 01:14:43;;;;;;;3.65;2.53;;;;;17.00;96260.00;;;;8433062;28;20218;-62
2022/07/27 01:18:47;;;;;;;5.80;3.22;;;;;16.80;96254.00;;;;8439908;28;20297;-63
2022/07/27 01:22:52;;;;;;;5.32;3.03;;;;;16.70;96248.00;;;;8433044;27;20219;-63
2022/07/27 01:26:55;;;;;;;5.38;3.47;;;;;16.60;96249.00;;;;8439989;28;20908;-62
2022/07/27 01:30:58;;;;;;;4.10;2.95;;;;;16.40;96246.00;;;;8441465;27;20316;-63
2022/07/27 01:35:02;;;;;;;3.10;2.80;;;;;16.40;96255.00;;;;8441882;27;20599;-62
2022/07/27 01:39:07;;;;;;;4.93;3.40;;;;;16.20;96245.00;;;;8431033;28;20235;-61
2022/07/27 01:43:11;;;;;;;4.45;3.28;;;;;16.10;96243.00;;;;8419502;28;20271;-62
2022/07/27 01:47:14;;;;;;;3.25;2.97;;;;;16.00;96233.00;;;;8441068;28;21085;-62
2022/07/27 01:51:17;;;;;;;4.50;3.28;;;;;16.00;96235.00;;;;8442377;28;20575;-64
2022/07/27 01:55:22;;;;;;;3.22;3.03;;;;;16.00;96223.00;;;;8433557;28;20234;-62
2022/07/27 01:59:25;;;;;;;9.48;6.15;;;;;16.00;96230.00;;;;8443873;28;20237;-64
2022/07/27 02:03:28;;;;;;;4.43;3.15;;;;;16.00;96227.00;;;;8436563;27;20233;-63
2022/07/27 02:07:33;;;;;;;5.75;3.40;;;;;15.90;96223.00;;;;8455821;27;20240;-64
2022/07/27 02:15:58;;;;;;;4.40;3.15;;;;;15.70;96210.00;;;;8466320;27;20316;-64
2022/07/27 02:20:02;;;;;;;4.32;3.20;;;;;15.60;96212.00;;;;8460919;27;20351;-63
2022/07/27 02:24:06;;;;;;;5.53;3.00;;;;;15.50;96221.00;;;;8462508;27;20226;-62
2022/07/27 02:28:10;;;;;;;3.25;2.65;;;;;15.50;96218.00;;;;8447972;28;20306;-64
2022/07/27 02:32:14;;;;;;;3.80;2.95;;;;;15.40;96219.00;;;;8459420;27;20239;-62
2022/07/27 02:36:17;;;;;;;3.33;3.00;;;;;15.40;96209.00;;;;8450183;28;20774;-63
2022/07/27 02:40:20;;;;;;;7.65;3.05;;;;;15.50;96200.00;;;;8463480;27;20228;-61
2022/07/27 02:44:25;;;;;;;5.03;3.15;;;;;15.40;96196.00;;;;8449601;28;20580;-62
2022/07/27 02:48:28;;;;;;;4.85;2.97;;;;;15.40;96190.00;;;;8428903;28;20300;-63
2022/07/27 02:52:31;;;;;;;3.65;3.35;;;;;15.20;96196.00;;;;8429233;28;20230;-63
2022/07/27 02:56:34;;;;;;;4.47;3.05;;;;;15.00;96205.00;;;;8433093;27;20225;-62
2022/07/27 03:00:39;;;;;;;4.70;3.20;;;;;14.90;96213.00;;;;8478828;22;20269;-64
2022/07/27 03:04:42;;;;;;;5.07;3.10;;;;;14.90;96210.00;;;;8434159;22;20232;-62
2022/07/27 03:08:46;;;;;;;3.50;3.20;;;;;15.00;96211.00;;;;8421949;28;20688;-63
2022/07/27 03:12:49;;;;;;;5.97;3.00;;;;;15.00;96213.00;;;;8427009;28;20233;-62
2022/07/27 03:16:56;;;;;;;4.47;3.50;;;;;15.00;96216.00;;;;8434186;28;20231;-62
2022/07/27 03:21:00;;;;;;;3.72;3.40;;;;;15.00;96216.00;;;;8426514;28;20304;-63
2022/07/27 03:25:03;;;;;;;3.35;3.05;;;;;15.10;96210.00;;;;8419845;28;20630;-62
2022/07/27 03:29:06;;;;;;;5.00;3.28;;;;;15.30;96222.00;;;;8422125;28;20234;-63
2022/07/27 03:33:11;;;;;;;3.53;2.78;;;;;15.40;96210.00;;;;8417487;28;20234;-63
2022/07/27 03:37:15;;;;;;;3.30;3.00;;;;;15.60;96204.00;;;;8427284;28;20304;-64
2022/07/27 03:41:18;;;;;;;10.27;2.70;;;;;15.80;96202.00;;;;8429928;28;20237;-64
2022/07/27 03:45:22;;;;;;;5.50;3.50;;;;;15.90;96200.00;;;;8426618;28;20268;-64
2022/07/27 03:49:26;;;;;;;2.78;2.58;;;;;16.10;96206.00;;;;8430619;28;20569;-64
2022/07/27 03:53:30;;;;;;;4.45;3.30;;;;;16.00;96213.00;;;;8427079;28;20609;-64
2022/07/27 03:57:33;;;;;;;3.85;3.17;;;;;16.10;96204.00;;;;8428853;28;20875;-63
2022/07/27 04:01:36;;;;;;;8.27;3.10;;;;;16.20;96212.00;;;;8434782;28;20257;-63
2022/07/27 04:05:41;;;;;;;3.88;3.00;;;;;16.40;96209.00;;;;8422262;28;20227;-64
2022/07/27 04:09:44;;;;;;;4.88;3.03;;;;;16.30;96213.00;;;;8397912;28;20322;-64
2022/07/27 04:13:50;;;;;;;5.45;3.60;;;;;16.30;96210.00;;;;8405317;28;20227;-63
2022/07/27 04:17:53;;;;;;;3.38;2.97;;;;;16.50;96211.00;;;;8404948;28;20719;-64
2022/07/27 04:22:01;;;;;;;4.72;3.03;;;;;16.60;96200.00;;;;8410782;28;20303;-65
2022/07/27 04:26:04;;;;;;;3.30;3.00;;;;;16.80;96197.00;;;;8405540;28;20552;-64
2022/07/27 04:30:08;;;;;;;6.80;3.30;;;;;17.00;96182.00;;;;8413551;28;20236;-64
2022/07/27 04:34:12;;;;;;;4.65;2.85;;;;;17.10;96194.00;;;;8406500;28;20223;-64
2022/07/27 04:38:16;;;;;;;5.63;3.22;;;;;17.10;96199.00;;;;8399253;28;20262;-63
2022/07/27 04:42:19;;;;;;;4.35;3.20;;;;;17.30;96198.00;;;;8404721;28;20214;-62
2022/07/27 04:46:22;;;;;;;4.75;3.33;;;;;17.40;96209.00;;;;8406946;28;20288;-64
2022/07/27 04:50:26;;;;;;;5.70;3.25;;;;;17.60;96206.00;;;;8412048;28;20903;-63
2022/07/27 04:54:30;;;;;;;4.55;3.03;;;;;17.80;96201.00;;;;8371108;28;20714;-63
2022/07/27 04:58:34;;;;;;;9.77;3.30;;;;;18.10;96200.00;;;;8388724;28;20219;-63
2022/07/27 05:02:39;;;;;;;4.65;3.40;;;;;18.30;96205.00;;;;8394416;28;20242;-64
2022/07/27 05:06:43;;;;;;;10.93;3.42;;;;;18.60;96214.00;;;;8389434;28;20293;-63
2022/07/27 05:10:48;;;;;;;6.50;3.00;;;;;18.80;96215.00;;;;8375510;28;20220;-63
2022/07/27 05:14:51;;;;;;;8.85;3.30;;;;;19.10;96223.00;;;;8383853;28;20311;-65
2022/07/27 05:18:54;;;;;;;4.30;3.00;;;;;19.20;96234.00;;;;8385293;28;20228;-63
2022/07/27 05:22:57;;;;;;;3.67;3.28;;;;;19.30;96238.00;;;;8390110;28;20318;-62
2022/07/27 05:27:02;;;;;;;7.32;3.40;;;;;19.40;96240.00;;;;8390008;28;20228;-62
2022/07/27 05:31:05;;;;;;;3.60;2.83;;;;;19.40;96245.00;;;;8397501;28;20348;-65
2022/07/27 05:35:09;;;;;;;7.05;3.03;;;;;19.50;96244.00;;;;8378152;28;20306;-63
2022/07/27 05:39:13;;;;;;;3.75;3.30;;;;;19.50;96252.00;;;;8366648;28;20549;-62
2022/07/27 05:43:18;;;;;;;3.70;3.00;;;;;19.60;96264.00;;;;8378953;28;20236;-64
2022/07/27 05:47:21;;;;;;;4.50;3.38;;;;;19.70;96269.00;;;;8389197;28;20304;-63
2022/07/27 05:51:24;;;;;;;6.47;3.10;;;;;20.00;96279.00;;;;8371324;28;20314;-63
2022/07/27 05:55:27;;;;;;;3.55;2.97;;;;;20.20;96282.00;;;;8377899;28;20230;-65
2022/07/27 05:59:32;;;;;;;4.13;3.30;;;;;20.40;96275.00;;;;8376586;28;20226;-63
2022/07/27 06:03:36;;;;;;;5.50;3.45;;;;;20.40;96275.00;;;;8380001;28;20326;-64
2022/07/27 06:12:01;;;;;;;4.72;3.25;;;;;20.60;96287.00;;;;8385322;28;20638;-64
2022/07/27 06:16:06;;;;;;;7.80;3.13;;;;;20.80;96284.00;;;;8381356;28;20231;-66
2022/07/27 06:20:09;;;;;;;4.55;3.42;;;;;21.10;96288.00;;;;8388731;28;20306;-63
2022/07/27 06:24:13;;;;;;;4.40;2.70;;;;;21.40;96287.00;;;;8389170;28;20230;-66
2022/07/27 06:28:18;;;;;;;3.67;2.83;;;;;21.50;96298.00;;;;8389420;28;20232;-64
2022/07/27 06:32:22;;;;;;;5.70;3.03;;;;;21.80;96294.00;;;;8387850;28;20246;-66
2022/07/27 06:36:25;;;;;;;6.57;3.40;;;;;22.00;96299.00;;;;8386005;28;20318;-64
2022/07/27 06:40:29;;;;;;;7.05;3.53;;;;;22.20;96302.00;;;;8395585;28;20219;-65
2022/07/27 06:44:32;;;;;;;7.82;3.25;;;;;22.50;96301.00;;;;8384594;28;20836;-65
2022/07/27 06:48:36;;;;;;;6.90;3.20;;;;;22.60;96310.00;;;;8382836;28;20700;-64
2022/07/27 06:52:40;;;;;;;6.32;3.10;;;;;22.80;96297.00;;;;8390235;28;20270;-66
2022/07/27 06:56:43;;;;;;;4.72;3.22;;;;;23.00;96299.00;;;;8393939;28;20226;-65
2022/07/27 07:00:47;;;;;;;8.30;3.92;;;;;23.40;96296.00;;;;8384602;28;20346;-65
2022/07/27 07:04:52;;;;;;;5.05;3.42;;;;;23.80;96297.00;;;;8377879;28;20232;-65
2022/07/27 07:08:55;;;;;;;5.05;3.20;;;;;24.00;96301.00;;;;8369089;28;21356;-65
2022/07/27 07:13:04;;;;;;;5.25;2.70;;;;;24.00;96300.00;;;;8385574;28;21000;-65
2022/07/27 07:17:07;;;;;;;6.40;3.38;;;;;24.10;96293.00;;;;8389914;28;20299;-65
2022/07/27 07:21:11;;;;;;;4.97;3.53;;;;;24.50;96269.00;;;;8382986;28;20644;-67
2022/07/27 07:25:15;;;;;;;6.22;3.75;;;;;24.90;96275.00;;;;8355596;28;20307;-65
2022/07/27 07:29:18;;;;;;;5.50;4.00;;;;;25.30;96280.00;;;;8356728;28;20303;-69
2022/07/27 07:33:21;;;;;;;8.02;3.88;;;;;26.00;96281.00;;;;8366947;28;20233;-64
2022/07/27 07:37:26;;;;;;;12.27;4.65;;;;;26.50;96275.00;;;;8357000;28;20237;-65
2022/07/27 07:41:36;;;;;;;6.75;4.10;;;;;27.20;96273.00;;;;8384442;28;20224;-65
2022/07/27 07:45:39;;;;;;;4.97;3.75;;;;;27.70;96273.00;;;;8375337;28;20238;-65
2022/07/27 07:49:53;;;;;;;4.55;3.20;;;;;28.40;96271.00;;;;8383019;28;20627;-65
2022/07/27 07:53:57;;;;;;;9.85;4.40;;;;;28.50;96268.00;;;;8385770;28;20584;-65
2022/07/27 07:58:00;;;;;;;3.70;3.40;;;;;28.40;96270.00;;;;8381246;28;20255;-65
2022/07/27 08:02:04;;;;;;;7.88;3.60;;;;;28.40;96271.00;;;;8378452;28;20311;-67
2022/07/27 08:06:07;;;;;;;4.68;3.50;;;;;28.40;96275.00;;;;8384760;28;20251;-66
2022/07/27 08:10:15;;;;;;;5.60;3.47;;;;;28.90;96275.00;;;;8384251;28;20216;-70
2022/07/27 08:14:18;;;;;;;5.70;3.42;;;;;29.00;96282.00;;;;8380903;28;20227;-67
2022/07/27 08:18:21;;;;;;;5.40;3.42;;;;;29.10;96277.00;;;;8384277;28;20803;-67
2022/07/27 08:22:25;;;;;;;4.65;3.20;;;;;29.10;96283.00;;;;8381665;28;20232;-68
2022/07/27 08:26:29;;;;;;;7.43;3.70;;;;;29.10;96277.00;;;;8384570;28;21194;-66
2022/07/27 08:30:32;;;;;;;4.57;3.40;;;;;29.20;96283.00;;;;8383250;28;20239;-68
2022/07/27 08:34:35;;;;;;;4.78;3.60;;;;;29.40;96285.00;;;;8393262;28;20318;-66
2022/07/27 08:38:40;;;;;;;4.00;3.60;;;;;29.90;96281.00;;;;8389457;28;20310;-67
2022/07/27 08:42:45;;;;;;;4.90;3.33;;;;;30.10;96286.00;;;;8382110;28;20771;-66
2022/07/27 08:46:51;;;;;;;3.20;3.00;;;;;30.20;96286.00;;;;8377774;28;20215;-67
2022/07/27 08:50:55;;;;;;;3.42;3.13;;;;;30.40;96282.00;;;;8389199;28;20220;-68
2022/07/27 08:54:58;;;;;;;5.50;3.28;;;;;30.60;96285.00;;;;8387279;28;20309;-66
2022/07/27 08:59:03;;;;;;;6.13;3.17;;;;;30.70;96286.00;;;;8385662;28;21982;-66
2022/07/27 09:03:06;;;;;;;4.15;2.97;;;;;30.70;96284.00;;;;8370485;28;20228;-71
2022/07/27 09:07:10;;;;;;;4.97;2.55;;;;;31.70;96277.00;;;;8370743;28;20288;-67
2022/07/27 09:11:15;;;;;;;3.38;2.83;;;;;31.80;96276.00;;;;8379071;28;20593;-70
2022/07/27 09:15:20;;;;;;;4.45;2.70;;;;;31.90;96275.00;;;;8370234;28;20314;-72
2022/07/27 09:19:23;;;;;;;2.90;2.70;;;;;31.90;96280.00;;;;8381455;28;20222;-72
2022/07/27 09:23:27;;;;;;;3.92;2.88;;;;;32.00;96270.00;;;;8381097;28;20224;-69
2022/07/27 09:27:31;;;;;;;3.10;2.10;;;;;32.10;96272.00;;;;8384292;28;20231;-73
2022/07/27 09:31:42;;;;;;;3.13;2.22;;;;;31.70;96276.00;;;;8380297;28;20227;-74
2022/07/27 09:35:58;;;;;;;5.90;2.25;;;;;31.70;96274.00;;;;8400256;28;20220;-72
2022/07/27 09:40:12;;;;;;;2.15;1.70;;;;;31.60;96260.00;;;;8384945;28;20223;-71
2022/07/27 09:44:17;;;;;;;3.15;1.90;;;;;31.90;96273.00;;;;8386478;28;20255;-72
2022/07/27 09:48:42;;;;;;;5.97;1.90;;;;;32.50;96277.00;;;;8370798;28;20231;-70
2022/07/27 09:52:46;;;;;;;2.80;1.75;;;;;32.40;96277.00;;;;8378488;28;20764;-68
2022/07/27 09:56:59;;;;;;;3.83;2.00;;;;;32.10;96285.00;;;;8375551;28;20314;-67
2022/07/27 10:01:02;;;;;;;3.80;2.22;;;;;31.00;96284.00;;;;8385695;28;20631;-67
2022/07/27 10:05:07;;;;;;;3.38;2.20;;;;;31.70;96277.00;;;;8363248;28;20231;-68
2022/07/27 10:09:11;;;;;;;4.90;1.70;;;;;33.10;96281.00;;;;8379697;28;20224;-67
2022/07/27 10:13:14;;;;;;;4.00;1.20;;;;;33.80;96279.00;;;;8375234;28;20231;-68
2022/07/27 10:17:17;;;;;;;8.23;2.05;;;;;34.40;96290.00;;;;8372101;28;20261;-70
2022/07/27 10:21:23;;;;;;;4.47;1.70;;;;;33.20;96293.00;;;;8370644;28;20228;-68
2022/07/27 10:25:28;;;;;;;4.88;1.80;;;;;32.20;96293.00;;;;8375882;28;20229;-67
2022/07/27 10:29:40;;;;;;;4.72;2.22;;;;;31.60;96295.00;;;;8380335;28;20219;-67
2022/07/27 10:33:44;;;;;;;3.88;1.70;;;;;31.10;96300.00;;;;8377503;28;20234;-67
2022/07/27 10:38:07;;;;;;;1.73;1.63;;;;;30.40;96300.00;;;;8391516;28;20220;-69
2022/07/27 10:42:25;;;;;;;4.47;2.10;;;;;30.40;96298.00;;;;8382156;28;20229;-69
2022/07/27 10:46:30;;;;;;;3.60;1.60;;;;;31.90;96298.00;;;;8399937;28;20215;-69
2022/07/27 10:50:34;;;;;;;2.80;1.88;;;;;32.00;96304.00;;;;8392087;28;20222;-67
2022/07/27 10:54:40;;;;;;;3.85;2.08;;;;;32.30;96296.00;;;;8385394;28;20588;-68
2022/07/27 10:58:48;;;;;;;2.33;2.13;;;;;32.40;96286.00;;;;8388993;28;20703;-68
2022/07/27 11:02:52;;;;;;;5.97;2.60;;;;;32.40;96290.00;;;;8391125;28;20314;-68
2022/07/27 11:06:56;;;;;;;2.58;1.90;;;;;31.60;96288.00;;;;8393827;28;20679;-68
2022/07/27 11:11:23;;;;;;;1.60;1.50;;;;;31.40;96286.00;;;;8385194;28;20288;-69
2022/07/27 11:15:26;;;;;;;5.75;2.08;;;;;32.20;96285.00;;;;8386681;28;20244;-68
2022/07/27 11:19:30;;;;;;;4.28;1.80;;;;;32.70;96275.00;;;;8382149;28;20230;-67
2022/07/27 11:23:33;;;;;;;4.88;2.05;;;;;32.80;96280.00;;;;8377537;28;21753;-68
2022/07/27 11:27:54;;;;;;;2.38;1.90;;;;;33.50;96263.00;;;;8379177;28;20937;-68
2022/07/27 11:31:59;;;;;;;2.28;2.05;;;;;33.30;96281.00;;;;8374300;28;20220;-67
2022/07/27 11:36:05;;;;;;;4.25;1.95;;;;;32.40;96271.00;;;;8385326;28;21916;-67
2022/07/27 11:40:10;;;;;;;2.92;2.00;;;;;31.90;96273.00;;;;8383336;28;20594;-68
2022/07/27 11:44:38;;;;;;;2.97;1.92;;;;;31.00;96277.00;;;;8384084;28;20273;-66
2022/07/27 11:48:54;;;;;;;1.70;1.60;;;;;30.80;96273.00;;;;8385299;28;20231;-68
2022/07/27 11:53:09;;;;;;;4.53;1.85;;;;;32.00;96293.00;;;;8379333;28;20319;-67
2022/07/27 11:57:15;;;;;;;3.22;1.42;;;;;31.70;96283.00;;;;8382649;28;20258;-68
2022/07/27 12:01:28;;;;;;;3.13;1.45;;;;;31.30;96273.00;;;;8389435;28;20222;-67
2022/07/27 12:05:31;;;;;;;1.65;1.55;;;;;31.40;96264.00;;;;8383875;28;20234;-66
2022/07/27 12:09:37;;;;;;;2.67;1.70;;;;;31.60;96265.00;;;;8390659;28;20251;-66
2022/07/27 12:13:41;;;;;;;1.60;1.50;;;;;32.30;96279.00;;;;8379298;28;20259;-67
2022/07/27 12:17:46;;;;;;;2.22;1.75;;;;;32.70;96266.00;;;;8377861;28;20652;-65
2022/07/27 12:21:54;;;;;;;1.40;1.30;;;;;32.30;96268.00;;;;8392857;28;20331;-68
2022/07/27 12:25:57;;;;;;;2.75;1.75;;;;;31.90;96272.00;;;;8379170;28;20775;-68
2022/07/27 12:30:05;;;;;;;2.67;1.50;;;;;31.90;96274.00;;;;8375939;28;20900;-67
2022/07/27 12:34:14;;;;;;;4.63;2.67;;;;;31.50;96275.00;;;;8382226;28;20228;-69
2022/07/27 12:38:17;;;;;;;3.25;3.05;;;;;30.90;96279.00;;;;8381803;28;20227;-67
2022/07/27 12:42:20;;;;;;;2.55;2.35;;;;;30.20;96280.00;;;;8373677;28;20212;-67
2022/07/27 12:46:24;;;;;;;7.35;2.70;;;;;30.50;96270.00;;;;8374709;28;20230;-69
2022/07/27 12:50:29;;;;;;;3.10;2.50;;;;;30.40;96280.00;;;;8382406;28;20223;-67
2022/07/27 12:54:32;;;;;;;3.47;3.00;;;;;30.30;96278.00;;;;8378658;28;20226;-66
2022/07/27 12:58:37;;;;;;;5.63;3.38;;;;;30.20;96264.00;;;;8374028;28;20222;-67
2022/07/27 13:02:40;;;;;;;3.22;2.95;;;;;30.30;96272.00;;;;8382499;28;20557;-67
2022/07/27 13:06:45;;;;;;;3.28;2.75;;;;;30.30;96267.00;;;;8385238;28;20235;-67
2022/07/27 13:10:50;;;;;;;3.05;2.38;;;;;30.00;96270.00;;;;8388910;28;20298;-67
2022/07/27 13:14:54;;;;;;;4.35;2.10;;;;;30.10;96266.00;;;;8381649;28;20246;-66
2022/07/27 13:18:57;;;;;;;5.80;2.67;;;;;30.00;96275.00;;;;8383163;28;20215;-67
2022/07/27 13:23:02;;;;;;;3.33;3.03;;;;;29.40;96288.00;;;;8364137;28;20697;-68
2022/07/27 13:27:05;;;;;;;3.88;3.10;;;;;28.70;96289.00;;;;8399911;28;20298;-67
2022/07/27 13:31:08;;;;;;;3.08;2.88;;;;;28.30;96292.00;;;;8380344;28;20227;-67
2022/07/27 13:35:12;;;;;;;5.20;3.15;;;;;28.10;96295.00;;;;8384232;28;20977;-68
2022/07/27 13:39:17;;;;;;;3.35;3.05;;;;;28.00;96294.00;;;;8388370;28;20271;-67
2022/07/27 13:43:20;;;;;;;3.92;3.20;;;;;28.00;96292.00;;;;8389796;28;20313;-67
2022/07/27 13:47:24;;;;;;;3.53;3.05;;;;;28.10;96292.00;;;;8383330;28;20216;-68
2022/07/27 13:51:27;;;;;;;3.42;3.13;;;;;28.00;96283.00;;;;8389331;28;20219;-70
2022/07/27 13:55:31;;;;;;;3.50;2.95;;;;;28.00;96281.00;;;;8383792;28;20242;-67
2022/07/27 13:59:34;;;;;;;4.65;2.92;;;;;27.80;96294.00;;;;8391682;28;20265;-69
2022/07/27 14:03:38;;;;;;;8.40;3.60;;;;;28.30;96278.00;;;;8387687;28;20238;-68
2022/07/27 14:07:41;;;;;;;5.25;2.83;;;;;29.80;96278.00;;;;8393475;28;20225;-68
2022/07/27 14:11:46;;;;;;;4.63;3.10;;;;;30.60;96281.00;;;;8389435;28;20231;-67
2022/07/27 14:21:26;;;;;;;3.65;3.10;;;;;31.10;96282.00;;;;8398350;28;20661;-67
2022/07/27 14:26:03;;;;;;;6.72;2.75;;;;;30.00;96285.00;;;;8398702;28;20667;-66
2022/07/27 14:30:41;;;;;;;4.70;2.63;;;;;29.30;96273.00;;;;8398835;28;20262;-66
2022/07/27 14:35:15;;;;;;;4.65;2.63;;;;;30.00;96266.00;;;;8397766;28;20315;-67
2022/07/27 14:39:52;;;;;;;3.28;2.63;;;;;30.30;96270.00;;;;8388700;28;20224;-66
2022/07/27 14:44:29;;;;;;;2.50;2.30;;;;;30.60;96274.00;;;;8399453;28;20228;-66
2022/07/27 14:49:07;;;;;;;2.83;2.38;;;;;30.70;96269.00;;;;8397573;28;20227;-67
2022/07/27 14:53:10;;;;;;;4.38;2.42;;;;;31.10;96262.00;;;;8398269;28;20219;-66
2022/07/27 14:57:47;;;;;;;3.22;2.55;;;;;30.10;96262.00;;;;8398518;28;20231;-67
2022/07/27 15:01:50;;;;;;;2.40;2.20;;;;;29.40;96266.00;;;;8392668;28;20247;-66
2022/07/27 15:06:24;;;;;;;4.75;2.75;;;;;28.50;96272.00;;;;8393537;28;20235;-66
2022/07/27 15:10:29;;;;;;;4.20;2.70;;;;;27.80;96271.00;;;;8397308;28;20625;-66
2022/07/27 15:15:05;;;;;;;3.78;2.70;;;;;27.60;96276.00;;;;8398452;28;20223;-66
2022/07/27 15:19:09;;;;;;;2.55;2.35;;;;;28.00;96281.00;;;;8394342;28;20579;-66
2022/07/27 15:23:13;;;;;;;2.88;2.20;;;;;28.30;96280.00;;;;8393585;28;20220;-67
2022/07/27 15:27:18;;;;;;;3.25;2.25;;;;;29.00;96280.00;;;;8398051;28;20212;-65
2022/07/27 15:31:22;;;;;;;5.50;2.20;;;;;28.80;96284.00;;;;8396997;28;20223;-65
2022/07/27 15:35:27;;;;;;;2.45;2.15;;;;;28.70;96286.00;;;;8396696;28;20231;-66
2022/07/27 15:49:55;;;;;;;3.08;2.30;;;;;28.50;96284.00;;;;8395868;28;20617;-67
2022/07/27 15:53:58;;;;;;;7.78;2.50;;;;;28.00;96280.00;;;;8395932;28;20219;-68
2022/07/27 15:58:35;;;;;;;2.90;2.10;;;;;28.20;96296.00;;;;8396052;28;20223;-68
2022/07/27 16:02:38;;;;;;;4.13;2.35;;;;;28.30;96285.00;;;;8395923;28;20264;-64
2022/07/27 16:06:43;;;;;;;4.28;2.35;;;;;27.90;96286.00;;;;8395982;28;20580;-65
2022/07/27 16:10:48;;;;;;;2.45;2.20;;;;;27.60;96277.00;;;;8396022;28;20228;-64
2022/07/27 16:16:20;;;;;;;4.82;2.72;;;;;27.30;96280.00;;;;8395191;28;20602;-66
2022/07/27 16:25:30;;;;;;;6.93;2.72;;;;;26.50;96266.00;;;;8394745;28;20265;-65
2022/07/27 16:30:09;;;;;;;2.40;2.20;;;;;26.30;96273.00;;;;8396415;28;20223;-65
2022/07/27 16:34:12;;;;;;;2.95;2.50;;;;;26.30;96267.00;;;;8388351;28;20242;-65
2022/07/27 16:38:16;;;;;;;3.35;2.10;;;;;26.30;96274.00;;;;8395226;28;20315;-66
2022/07/27 16:42:20;;;;;;;3.90;2.33;;;;;26.20;96280.00;;;;8396064;28;20744;-65
2022/07/27 16:46:54;;;;;;;3.83;2.20;;;;;25.90;96281.00;;;;8395073;28;20304;-65
2022/07/27 16:51:31;;;;;;;3.20;2.30;;;;;25.80;96283.00;;;;8394859;28;20212;-65
2022/07/27 16:56:08;;;;;;;2.50;2.30;;;;;25.60;96281.00;;;;8394533;28;20232;-65
2022/07/27 17:00:44;;;;;;;7.30;2.20;;;;;25.50;96278.00;;;;8395016;28;20302;-65
2022/07/27 17:04:47;;;;;;;2.90;2.42;;;;;25.50;96289.00;;;;8393674;28;20231;-65
2022/07/27 17:09:24;;;;;;;2.70;2.20;;;;;25.70;96277.00;;;;8393806;28;20273;-65
2022/07/27 17:13:28;;;;;;;13.13;3.03;;;;;26.40;96282.00;;;;8394641;28;20638;-65
2022/07/27 17:17:37;;;;;;;3.47;2.30;;;;;26.30;96279.00;;;;8393929;28;20223;-64
2022/07/27 17:22:12;;;;;;;2.38;2.17;;;;;26.00;96285.00;;;;8394368;28;20246;-64
2022/07/27 17:26:15;;;;;;;3.28;2.20;;;;;25.80;96287.00;;;;8388609;28;20642;-64
2022/07/27 17:30:18;;;;;;;4.68;2.20;;;;;25.80;96288.00;;;;8394532;28;20244;-64
2022/07/27 17:34:57;;;;;;;2.95;2.10;;;;;25.90;96286.00;;;;8392343;28;20222;-64
2022/07/27 17:39:31;;;;;;;5.25;2.13;;;;;25.90;96302.00;;;;8393578;28;20247;-64
2022/07/27 17:43:37;;;;;;;2.92;2.00;;;;;25.80;96306.00;;;;8393053;28;20220;-65
2022/07/27 17:48:11;;;;;;;2.75;2.55;;;;;25.30;96303.00;;;;8394060;28;20230;-65
2022/07/27 17:52:47;;;;;;;2.10;2.00;;;;;25.00;96298.00;;;;8391572;28;20219;-67
2022/07/27 17:56:52;;;;;;;2.35;2.25;;;;;24.90;96299.00;;;;8387595;28;20220;-66
2022/07/27 18:00:55;;;;;;;3.30;2.00;;;;;24.90;96300.00;;;;8393171;28;20223;-66
2022/07/27 18:05:32;;;;;;;4.30;2.35;;;;;24.80;96308.00;;;;8392365;28;20216;-66
2022/07/27 18:10:09;;;;;;;3.38;2.20;;;;;24.60;96321.00;;;;8326809;28;20296;-65
2022/07/27 18:19:05;;;;;;;2.45;2.25;;;;;24.40;96315.00;;;;8325697;28;20220;-65
2022/07/27 18:23:39;;;;;;;5.63;2.50;;;;;24.10;96312.00;;;;8351448;28;20295;-66
2022/07/27 18:28:17;;;;;;;4.80;2.63;;;;;23.90;96320.00;;;;8346095;28;20219;-65
2022/07/27 18:32:53;;;;;;;2.58;2.38;;;;;23.60;96323.00;;;;8327733;28;20666;-65
2022/07/27 18:37:27;;;;;;;3.05;2.80;;;;;23.40;96324.00;;;;8310729;28;20229;-66
2022/07/27 18:42:04;;;;;;;3.35;2.67;;;;;23.30;96335.00;;;;8324977;28;20217;-67
2022/07/27 18:46:41;;;;;;;2.72;2.53;;;;;23.20;96334.00;;;;8329640;28;20236;-68
2022/07/27 18:51:17;;;;;;;2.85;2.65;;;;;23.10;96340.00;;;;8362632;28;20231;-69
2022/07/27 18:55:55;;;;;;;3.10;2.67;;;;;22.90;96343.00;;;;8361427;28;20643;-66
2022/07/27 18:59:58;;;;;;;3.03;2.83;;;;;22.70;96352.00;;;;8332139;28;20698;-67
2022/07/27 19:04:33;;;;;;;4.55;2.80;;;;;22.50;96351.00;;;;8331354;28;20268;-67
2022/07/27 19:13:54;;;;;;;6.75;2.80;;;;;22.10;96370.00;;;;8395609;28;20292;-67
2022/07/27 19:18:28;;;;;;;4.03;3.00;;;;;21.80;96363.00;;;;8397937;28;20254;-68
2022/07/27 19:23:05;;;;;;;3.15;2.95;;;;;21.60;96377.00;;;;8397515;28;20230;-68
2022/07/27 19:27:42;;;;;;;3.10;2.85;;;;;21.50;96377.00;;;;8397358;28;20243;-68
2022/07/27 19:32:21;;;;;;;3.03;2.72;;;;;21.40;96378.00;;;;8397706;28;20306;-66
2022/07/27 19:36:55;;;;;;;4.97;2.83;;;;;21.30;96381.00;;;;8395827;28;20223;-66
2022/07/27 19:41:32;;;;;;;3.20;2.85;;;;;21.10;96387.00;;;;8397018;28;20216;-66
2022/07/27 19:46:09;;;;;;;4.88;2.97;;;;;21.00;96407.00;;;;8397021;28;20681;-66
2022/07/27 19:50:46;;;;;;;3.55;3.25;;;;;20.90;96404.00;;;;8393860;28;20243;-66
2022/07/27 19:55:24;;;;;;;3.40;3.10;;;;;20.80;96410.00;;;;8396123;28;20586;-65
2022/07/27 20:00:03;;;;;;;3.47;3.17;;;;;20.70;96405.00;;;;8394929;28;20246;-66
2022/07/27 20:04:08;;;;;;;3.20;3.00;;;;;20.60;96404.00;;;;8396215;28;20560;-66
2022/07/27 20:08:11;;;;;;;4.60;3.45;;;;;20.60;96407.00;;;;8395054;28;20649;-66
2022/07/27 20:12:50;;;;;;;4.10;3.58;;;;;20.50;96410.00;;;;8396878;28;20670;-65
2022/07/27 20:17:24;;;;;;;5.78;3.50;;;;;20.40;96419.00;;;;8395101;28;20652;-66
2022/07/27 20:21:40;;;;;;;6.85;3.50;;;;;20.30;96427.00;;;;8396082;28;20618;-63
2022/07/27 20:26:13;;;;;;;5.47;3.50;;;;;20.30;96428.00;;;;8395076;28;20636;-63
2022/07/27 20:30:52;;;;;;;8.45;3.75;;;;;20.20;96430.00;;;;8395761;28;20216;-64
2022/07/27 20:35:26;;;;;;;3.83;3.40;;;;;20.10;96436.00;;;;8394632;28;20294;-64
2022/07/27 20:40:04;;;;;;;3.67;3.10;;;;;20.00;96438.00;;;;8395425;28;20220;-63
2022/07/27 20:44:38;;;;;;;4.75;3.47;;;;;20.00;96425.00;;;;8395343;28;20302;-63
2022/07/27 20:48:42;;;;;;;4.32;3.83;;;;;19.90;96423.00;;;;8394728;28;20216;-64
2022/07/27 20:52:46;;;;;;;7.03;3.55;;;;;19.80;96428.00;;;;8394413;28;20223;-64
2022/07/27 20:57:22;;;;;;;4.38;3.22;;;;;19.60;96424.00;;;;8390525;28;20302;-63
2022/07/27 21:02:00;;;;;;;4.07;3.67;;;;;19.50;96436.00;;;;8392643;28;20251;-63
2022/07/27 21:06:37;;;;;;;3.42;3.22;;;;;19.40;96438.00;;;;8392928;28;20268;-63
2022/07/27 21:11:13;;;;;;;4.60;3.72;;;;;19.30;96435.00;;;;8360871;28;20673;-63
2022/07/27 21:15:18;;;;;;;3.95;3.65;;;;;19.20;96445.00;;;;8351157;28;20213;-62
2022/07/27 21:19:21;;;;;;;4.50;4.07;;;;;19.00;96441.00;;;;8361433;28;20633;-62
2022/07/27 21:28:00;;;;;;;6.60;3.97;;;;;18.80;96440.00;;;;8328673;28;20225;-62
2022/07/27 21:32:06;;;;;;;6.70;3.70;;;;;18.80;96450.00;;;;8326853;28;20221;-62
2022/07/27 21:36:09;;;;;;;8.73;3.92;;;;;18.80;96441.00;;;;8327504;28;20221;-62
2022/07/27 21:40:46;;;;;;;6.70;3.60;;;;;18.80;96439.00;;;;8328716;28;20231;-63